Pitt Meadows, British Columbia

09:45 PST le 24 novembre 2014 (GMT -0800)
Pitt Meadows Casa de Douglas | Change Station
CLOSE
Current Station
Stations météorologiques personnelles
Location: Pitt Meadows, BRITISH COLUMBIA
Altitude: 66 ft
Stations météo à proximité

Alt. 66 ft 49.22 °N, 122.69 °W | Updated 2 minutes ago

Overcast
Couvert
42.6 ° F
Paraît 41 ° F
N
3.8
Vent Variable Vent de ESE

Aujourd'hui
Haut(e) -- | Bas -- ° F
--% Risque de précip.
Hier
Haut(e) -- | Bas -- ° F
Precip. -- pouce
7:34 AM 4:19 PM
Lune montante, 6% visible
Pression 30.31 pouce
Visibilité 30.0 Miles terrestres
Nuages Peu 4000 ft
Nuages épars 7000 ft
Couvert 10000 ft
Refroidissement éolien 41 ° F
Point de rosée 42 ° F
Humidité 99%
Précipitations 0.02 pouce
Profondeur de la couche neigeuse Non disponible.
UV 0 sur 12
Pollen Non disponible.
Qualité de l'air Non disponible.
Flu Activity Non disponible.
METAR CYXX 241700Z 04003KT 30SM FEW040 SCT070 OVC100 06/05 A3031 RMK SC1AC3AS4 SLP264

More Conditions Fewer Conditions

Pression 30.31 pouce
Visibilité 30.0 Miles terrestres
Nuages Peu 4000 ft
Nuages épars 7000 ft
Couvert 10000 ft
Refroidissement éolien 41 ° F
Point de rosée 42 ° F
Humidité 99%
Précipitations 0.02 pouce
Profondeur de la couche neigeuse Non disponible.
UV 0 sur 12
Pollen Non disponible.
Qualité de l'air Non disponible.
Flu Activity Non disponible.
METAR CYXX 241700Z 04003KT 30SM FEW040 SCT070 OVC100 06/05 A3031 RMK SC1AC3AS4 SLP264

More Conditions Fewer Conditions

10-Day Weather Forecast

Almanac

Astronomie

Nov. 24, 2014 Lever Coucher
Temps réel
Crépuscule civil
Crépuscule nautique
Crépuscule astronomique
Lune
Durée de lumière visible
Longueur du jour
Tomorrow will be .
, % of the Moon is Illuminated

Extrêmes aujourd'hui

Country Highs Country Lows

Community

WunderPhotos

Upload Photos

1,773,379 Photos téléchargées !

WunderBlogs® & News

Nearby

Qualité de l'air

  Qualité de l'air Indice de la qualité de l'air Polluant
Not available.

Épaisseur de neige

Station Depth Altitude

Activité sismique

Ville Distance Mag. Time & Date
Minimum magnitude displayed is 2.5.

Températures des eaux côtières

Lieu Température

Stations météo à proximité